Time;durP1;ratioP1;P1;durP2;ratioP2;P2;SDS_P1;SDS_P2;PMS_P1;PMS_P2;Temp;Humidity;BMP_temperature;BMP_pressure;BME280_temperature;BME280_humidity;BME280_pressure;Samples;Min_cycle;Max_cycle;Signal;HPM_P1;HPM_P2
2023/03/02 00:02:55;;;;;;;36.85;21.40;;;;;;;0.20;99.94;100551.38;1774202;79;21189;-91
2023/03/02 00:06:00;;;;;;;35.60;20.27;;;;;;;0.17;99.84;100553.41;1775282;79;21196;-79
2023/03/02 00:09:07;;;;;;;36.83;22.37;;;;;;;0.15;99.96;100549.49;1776068;81;21170;-89
2023/03/02 00:12:14;;;;;;;36.90;21.50;;;;;;;0.14;100.00;100548.23;1774174;79;21201;-90
2023/03/02 00:15:14;;;;;;;31.50;19.17;;;;;;;0.17;100.00;100548.89;1766524;81;21644;-90
2023/03/02 00:18:07;;;;;;;37.03;19.85;;;;;;;0.20;100.00;100546.49;1774087;79;21173;-79
2023/03/02 00:21:09;;;;;;;;;;;;;;;0.24;99.59;100542.63;1776179;79;21185;-91
2023/03/02 00:24:00;;;;;;;35.15;19.75;;;;;;;0.18;99.19;100541.67;1773870;81;20209;-90
2023/03/02 00:27:06;;;;;;;34.25;19.65;;;;;;;0.11;98.98;100535.87;1774271;79;21566;-89
2023/03/02 00:30:13;;;;;;;31.60;19.95;;;;;;;0.06;98.97;100530.42;1776424;81;21225;-89
2023/03/02 00:33:19;;;;;;;34.50;20.55;;;;;;;-0.01;98.96;100536.20;1773422;79;21172;-87
2023/03/02 00:36:25;;;;;;;36.93;20.97;;;;;;;0.03;98.85;100543.59;1776007;79;21149;-88
2023/03/02 00:39:31;;;;;;;35.75;19.90;;;;;;;-0.03;98.95;100542.17;1773717;81;21687;-90
2023/03/02 00:42:37;;;;;;;27.32;18.85;;;;;;;-0.11;99.01;100548.54;1774620;79;21158;-89
2023/03/02 00:45:44;;;;;;;33.85;18.10;;;;;;;-0.16;99.07;100553.85;1775901;80;21201;-89
2023/03/02 00:48:49;;;;;;;30.20;18.77;;;;;;;-0.21;99.16;100556.84;1774689;81;21177;-91
2023/03/02 00:51:56;;;;;;;37.28;21.77;;;;;;;-0.28;99.37;100556.41;1773071;79;21153;-79
2023/03/02 00:54:56;;;;;;;34.90;20.10;;;;;;;-0.34;99.70;100556.78;1772219;81;21170;-88
2023/03/02 00:58:02;;;;;;;35.30;19.15;;;;;;;-0.35;99.91;100546.14;1773763;79;21683;-89
2023/03/02 01:01:17;;;;;;;33.10;19.00;;;;;;;-0.39;100.00;100548.16;1775315;79;21154;-79
2023/03/02 01:04:23;;;;;;;29.92;19.07;;;;;;;-0.44;100.00;100546.75;1773221;81;21226;-79
2023/03/02 01:07:30;;;;;;;31.82;19.75;;;;;;;-0.48;100.00;100544.73;1774644;79;21170;-79
2023/03/02 01:10:39;;;;;;;30.55;18.15;;;;;;;-0.46;100.00;100546.86;1773623;81;21761;-78
2023/03/02 01:13:45;;;;;;;31.57;19.30;;;;;;;-0.49;100.00;100548.39;1773997;81;21127;-87
2023/03/02 01:16:51;;;;;;;31.45;18.27;;;;;;;-0.50;100.00;100557.91;1774238;79;21177;-80
2023/03/02 01:19:57;;;;;;;32.45;18.37;;;;;;;-0.58;100.00;100557.91;1773260;81;21224;-79
2023/03/02 01:23:03;;;;;;;35.38;19.37;;;;;;;-0.59;100.00;100560.70;1773507;79;21153;-79
2023/03/02 01:26:09;;;;;;;34.05;19.57;;;;;;;-0.55;100.00;100556.86;1773176;79;21098;-78
2023/03/02 01:29:14;;;;;;;28.30;18.87;;;;;;;-0.55;100.00;100560.41;1773180;81;21189;-79
2023/03/02 01:32:19;;;;;;;31.40;18.52;;;;;;;-0.51;100.00;100567.80;1774622;79;21177;-90
2023/03/02 01:35:25;;;;;;;35.08;19.07;;;;;;;-0.46;100.00;100567.02;1773501;81;21213;-90
2023/03/02 01:38:31;;;;;;;38.58;20.23;;;;;;;-0.47;100.00;100569.77;1775053;81;21122;-79
2023/03/02 01:41:37;;;;;;;39.80;19.95;;;;;;;-0.47;100.00;100567.98;1774885;79;21185;-89
2023/03/02 01:44:55;;;;;;;32.33;19.00;;;;;;;-0.50;100.00;100565.48;1786141;80;21152;-79
2023/03/02 01:48:02;;;;;;;33.10;20.00;;;;;;;-0.52;100.00;100564.70;1788056;79;21254;-90
2023/03/02 01:51:08;;;;;;;36.73;19.90;;;;;;;-0.57;100.00;100565.00;1787368;79;21121;-78
2023/03/02 01:54:21;;;;;;;32.20;17.55;;;;;;;-0.59;100.00;100566.08;1786606;80;21162;-79
2023/03/02 01:57:33;;;;;;;33.33;18.27;;;;;;;-0.63;100.00;100565.89;1786429;79;21710;-89
2023/03/02 02:00:43;;;;;;;32.63;17.60;;;;;;;-0.69;100.00;100560.91;1788478;80;21169;-86
2023/03/02 02:03:50;;;;;;;34.03;18.07;;;;;;;-0.77;100.00;100568.11;1787981;80;21236;-79
2023/03/02 02:07:08;;;;;;;31.07;16.82;;;;;;;-0.84;100.00;100575.70;1788854;79;21180;-90
2023/03/02 02:10:14;;;;;;;27.27;16.55;;;;;;;-0.87;100.00;100562.95;1787579;80;21173;-81
2023/03/02 02:13:20;;;;;;;32.42;16.95;;;;;;;-0.92;100.00;100568.61;1787904;79;21201;-79
2023/03/02 02:16:27;;;;;;;31.07;17.30;;;;;;;-0.95;100.00;100567.45;1789361;79;21117;-80
2023/03/02 02:19:55;;;;;;;27.30;16.95;;;;;;;-0.98;100.00;100577.06;1787899;79;21141;-79
2023/03/02 02:23:36;;;;;;;26.02;16.37;;;;;;;-1.01;100.00;100572.35;1786938;79;21184;-88
2023/03/02 02:26:53;;;;;;;28.15;16.12;;;;;;;-1.05;100.00;100564.97;1788362;79;21180;-89
2023/03/02 02:29:59;;;;;;;33.15;18.00;;;;;;;-1.13;100.00;100564.57;1795568;80;21467;-79
2023/03/02 02:33:05;;;;;;;28.20;16.87;;;;;;;-1.18;100.00;100562.17;1786942;79;21200;-79
2023/03/02 02:36:18;;;;;;;32.38;17.92;;;;;;;-1.23;100.00;100561.59;1789294;79;21102;-87
2023/03/02 02:39:36;;;;;;;29.18;17.32;;;;;;;-1.25;100.00;100558.16;1772561;80;21122;-87
2023/03/02 02:42:46;;;;;;;29.90;15.88;;;;;;;-1.27;100.00;100559.20;1785725;79;21168;-78
2023/03/02 02:45:56;;;;;;;29.00;17.23;;;;;;;-1.33;100.00;100559.10;1774364;80;21126;-89
2023/03/02 02:49:02;;;;;;;32.08;18.52;;;;;;;-1.37;100.00;100563.78;1774857;81;21142;-82
2023/03/02 02:52:10;;;;;;;33.50;20.40;;;;;;;-1.38;100.00;100561.20;1775117;79;21161;-79
2023/03/02 02:55:18;;;;;;;32.10;16.60;;;;;;;-1.38;100.00;100563.41;1773698;81;21772;-79
2023/03/02 02:58:41;;;;;;;29.37;16.65;;;;;;;-1.37;100.00;100564.27;1773012;81;21793;-80
2023/03/02 03:01:47;;;;;;;29.70;18.48;;;;;;;-1.40;100.00;100565.82;1773890;79;21204;-89
2023/03/02 03:05:01;;;;;;;30.62;18.40;;;;;;;-1.39;100.00;100567.54;1773734;78;21213;-89
2023/03/02 03:08:14;;;;;;;35.83;18.73;;;;;;;-1.37;100.00;100570.50;1774124;79;21188;-79
2023/03/02 03:11:25;;;;;;;30.43;18.67;;;;;;;-1.36;100.00;100566.02;1774068;79;21181;-79
2023/03/02 03:14:43;;;;;;;31.55;19.05;;;;;;;-1.36;100.00;100568.22;1773608;81;21773;-90
2023/03/02 03:17:49;;;;;;;33.08;18.80;;;;;;;-1.39;100.00;100564.38;1774524;79;21201;-88
2023/03/02 03:20:56;;;;;;;35.50;20.00;;;;;;;-1.41;100.00;100564.96;1773825;81;21133;-79
2023/03/02 03:23:55;;;;;;;36.98;20.12;;;;;;;-1.42;100.00;100574.42;1773791;81;21217;-79
2023/03/02 03:26:49;;;;;;;33.98;21.25;;;;;;;-1.43;100.00;100571.36;1776672;79;21232;-85
2023/03/02 03:29:38;;;;;;;33.40;19.73;;;;;;;-1.47;100.00;100569.34;1773621;81;21166;-90
2023/03/02 03:32:33;;;;;;;33.53;19.98;;;;;;;-1.49;100.00;100569.06;1774186;79;21228;-89
2023/03/02 03:35:39;;;;;;;30.82;18.70;;;;;;;-1.51;100.00;100570.48;1773464;81;21722;-80
2023/03/02 03:38:47;;;;;;;31.90;18.85;;;;;;;-1.53;100.00;100579.11;1774231;81;21264;-88
2023/03/02 03:41:54;;;;;;;32.90;19.80;;;;;;;-1.53;100.00;100578.25;1774952;79;21157;-84
2023/03/02 03:44:59;;;;;;;37.73;18.40;;;;;;;-1.53;100.00;100587.16;1774127;81;21164;-90
2023/03/02 03:48:08;;;;;;;36.50;18.27;;;;;;;-1.55;100.00;100586.40;1773993;79;21217;-91
2023/03/02 03:51:16;;;;;;;34.08;19.30;;;;;;;-1.57;100.00;100590.98;1772471;79;21232;-79
2023/03/02 03:54:22;;;;;;;31.68;18.40;;;;;;;-1.61;100.00;100592.97;1764515;81;21130;-78
2023/03/02 03:57:28;;;;;;;43.25;20.95;;;;;;;-1.60;100.00;100588.47;1772986;79;21162;-89
2023/03/02 04:00:29;;;;;;;37.03;20.62;;;;;;;-1.63;100.00;100591.36;1775077;81;21174;-86
2023/03/02 04:03:24;;;;;;;38.00;20.23;;;;;;;-1.64;100.00;100593.66;1775110;81;21165;-89
2023/03/02 04:06:31;;;;;;;34.95;19.02;;;;;;;-1.68;100.00;100594.80;1773784;79;21722;-79
2023/03/02 04:09:38;;;;;;;34.15;19.50;;;;;;;-1.72;100.00;100589.22;1775526;81;21145;-89
2023/03/02 04:12:45;;;;;;;34.35;20.77;;;;;;;-1.72;100.00;100587.88;1773748;79;21742;-78
2023/03/02 04:15:52;;;;;;;35.97;19.97;;;;;;;-1.72;100.00;100591.42;1764347;81;21162;-79
2023/03/02 04:18:57;;;;;;;34.13;18.23;;;;;;;-1.70;100.00;100589.50;1774864;81;21996;-88
2023/03/02 04:22:05;;;;;;;37.98;19.95;;;;;;;-1.70;100.00;100588.64;1773921;79;21150;-79
2023/03/02 04:25:13;;;;;;;34.50;18.42;;;;;;;-1.71;100.00;100592.28;1772320;81;22109;-89
2023/03/02 04:28:21;;;;;;;38.50;19.27;;;;;;;-1.72;100.00;100593.24;1774199;79;21820;-89
2023/03/02 04:31:26;;;;;;;26.57;17.42;;;;;;;-1.76;100.00;100591.69;1775347;79;21189;-78
2023/03/02 04:34:33;;;;;;;30.25;18.67;;;;;;;-1.77;100.00;100581.93;1778189;79;21140;-88
2023/03/02 04:37:30;;;;;;;33.65;18.07;;;;;;;-1.77;100.00;100583.27;1776927;78;21185;-90
2023/03/02 04:40:22;;;;;;;35.05;20.43;;;;;;;-1.75;100.00;100593.41;1776883;79;21145;-87
2023/03/02 04:43:28;;;;;;;29.70;18.12;;;;;;;-1.76;100.00;100593.03;1775041;78;21142;-89
2023/03/02 04:46:34;;;;;;;32.53;18.90;;;;;;;-1.76;100.00;100591.21;1777284;79;21110;-90
2023/03/02 04:49:41;;;;;;;41.35;20.80;;;;;;;-1.77;100.00;100598.02;1788536;80;21196;-89
2023/03/02 04:52:48;;;;;;;39.58;20.57;;;;;;;-1.76;100.00;100599.26;1786489;79;21152;-80
2023/03/02 04:55:55;;;;;;;36.13;19.92;;;;;;;-1.74;100.00;100600.05;1786606;80;21137;-80
2023/03/02 04:59:02;;;;;;;40.67;20.80;;;;;;;-1.69;100.00;100605.14;1785386;80;21219;-89
2023/03/02 05:02:09;;;;;;;36.75;20.62;;;;;;;-1.65;100.00;100599.95;1786394;79;21160;-89
2023/03/02 05:05:26;;;;;;;32.33;18.45;;;;;;;-1.60;100.00;100600.09;1787099;80;21153;-90
2023/03/02 05:08:32;;;;;;;36.40;20.17;;;;;;;-1.56;100.00;100601.61;1786098;80;21212;-89
2023/03/02 05:11:38;;;;;;;36.33;21.82;;;;;;;-1.49;100.00;100609.30;1784900;79;21263;-78
2023/03/02 05:14:45;;;;;;;37.13;21.40;;;;;;;-1.46;100.00;100603.73;1785007;80;21149;-90
2023/03/02 05:17:52;;;;;;;31.95;19.32;;;;;;;-1.39;100.00;100610.48;1785409;79;21149;-79
2023/03/02 05:20:58;;;;;;;35.13;20.17;;;;;;;-1.31;100.00;100611.74;1786160;80;21153;-90
2023/03/02 05:24:04;;;;;;;37.55;20.23;;;;;;;-1.23;100.00;100609.05;1785891;80;21149;-80
2023/03/02 05:27:10;;;;;;;36.38;19.85;;;;;;;-1.14;100.00;100613.86;1784525;79;21772;-90
2023/03/02 05:30:17;;;;;;;35.40;19.00;;;;;;;-1.08;100.00;100614.84;1775093;79;21714;-79
2023/03/02 05:33:23;;;;;;;41.28;21.55;;;;;;;-0.98;100.00;100620.51;1783497;80;21212;-89
2023/03/02 05:36:30;;;;;;;33.65;19.48;;;;;;;-0.92;100.00;100628.17;1776087;80;21182;-89
2023/03/02 05:39:35;;;;;;;30.90;18.55;;;;;;;-0.87;100.00;100626.92;1774135;80;21141;-88
2023/03/02 05:42:41;;;;;;;30.17;17.27;;;;;;;-0.79;100.00;100632.69;1783807;80;21243;-87
2023/03/02 05:45:47;;;;;;;31.65;16.87;;;;;;;-0.74;100.00;100628.37;1785762;80;21184;-83
2023/03/02 05:48:53;;;;;;;30.85;18.00;;;;;;;-0.74;100.00;100633.73;1783747;80;21263;-87
2023/03/02 05:52:00;;;;;;;29.95;17.27;;;;;;;-0.70;100.00;100635.77;1785197;79;21216;-79
2023/03/02 05:55:06;;;;;;;29.40;16.07;;;;;;;-0.66;99.41;100634.58;1785145;80;21169;-79
2023/03/02 05:58:14;;;;;;;31.70;16.65;;;;;;;-0.61;99.01;100634.70;1780076;79;21764;-79
2023/03/02 06:01:18;;;;;;;27.30;15.25;;;;;;;-0.50;98.91;100643.41;1779491;79;21208;-87
2023/03/02 06:04:24;;;;;;;21.40;11.15;;;;;;;-0.42;98.20;100645.14;1775293;79;21247;-80
2023/03/02 06:07:30;;;;;;;27.50;14.98;;;;;;;-0.30;97.81;100642.98;1773825;79;21211;-88
2023/03/02 06:10:36;;;;;;;28.87;15.05;;;;;;;-0.20;97.23;100642.39;1777793;80;21165;-88
2023/03/02 06:13:41;;;;;;;26.37;14.80;;;;;;;-0.11;96.75;100649.86;1776620;80;21154;-86
2023/03/02 06:16:48;;;;;;;25.40;14.10;;;;;;;-0.01;96.26;100649.64;1771837;79;21192;-86
2023/03/02 06:19:54;;;;;;;29.25;14.35;;;;;;;0.09;95.44;100652.09;1778294;80;21232;-79
2023/03/02 06:23:00;;;;;;;21.65;11.80;;;;;;;0.14;95.03;100644.62;1770791;79;21133;-80
2023/03/02 06:26:07;;;;;;;23.25;12.78;;;;;;;0.27;94.82;100649.16;1773223;80;21183;-79
2023/03/02 06:29:13;;;;;;;21.80;12.73;;;;;;;0.08;94.37;100649.03;1776983;79;21223;-80
2023/03/02 06:32:17;;;;;;;25.15;13.60;;;;;;;0.13;93.93;100650.94;1779136;80;21109;-86
2023/03/02 06:35:23;;;;;;;25.62;14.07;;;;;;;0.19;93.42;100652.38;1773963;80;21180;-80
2023/03/02 06:38:30;;;;;;;21.45;12.28;;;;;;;0.27;93.17;100655.89;1776718;80;21548;-87
2023/03/02 06:41:34;;;;;;;22.40;11.18;;;;;;;0.39;92.95;100661.81;1775293;80;21180;-87
2023/03/02 06:44:40;;;;;;;18.67;12.13;;;;;;;0.49;92.29;100656.19;1769985;80;21157;-87
2023/03/02 06:47:46;;;;;;;22.85;11.53;;;;;;;0.61;91.74;100661.20;1774106;80;21172;-88
2023/03/02 06:50:52;;;;;;;16.23;10.38;;;;;;;0.78;91.12;100657.37;1775520;80;21193;-87
2023/03/02 06:53:58;;;;;;;18.73;10.53;;;;;;;0.95;90.52;100669.20;1770731;80;21169;-79
2023/03/02 06:57:05;;;;;;;18.77;9.73;;;;;;;1.08;89.56;100666.02;1779925;79;21074;-79
2023/03/02 07:00:16;;;;;;;21.33;11.65;;;;;;;1.09;88.87;100667.76;1774156;79;21121;-80
2023/03/02 07:03:22;;;;;;;19.95;10.20;;;;;;;1.10;88.46;100666.78;1781161;79;21169;-79
2023/03/02 07:06:28;;;;;;;17.98;9.98;;;;;;;1.22;88.24;100675.83;1778203;79;21185;-78
2023/03/02 07:09:33;;;;;;;19.17;10.80;;;;;;;1.25;86.25;100676.48;1770960;80;21161;-79
2023/03/02 07:12:39;;;;;;;17.37;9.38;;;;;;;1.31;85.92;100675.17;1775636;80;21160;-87
2023/03/02 07:15:48;;;;;;;20.10;10.00;;;;;;;1.35;84.93;100676.69;1774603;80;21156;-88
2023/03/02 07:18:55;;;;;;;21.12;10.68;;;;;;;1.40;84.03;100675.02;1772467;79;21744;-87
2023/03/02 07:22:02;;;;;;;20.17;10.23;;;;;;;1.45;84.75;100673.72;1773210;79;21726;-80
2023/03/02 09:20:16;;;;;;;8.85;3.58;;;;;;;2.99;59.59;100642.91;1790115;79;28294;-83
2023/03/02 13:39:43;;;;;;;9.70;2.95;;;;;;;5.22;60.48;100548.92;1876080;76;22231;-84
2023/03/02 13:42:50;;;;;;;10.78;3.45;;;;;;;5.18;59.82;100541.59;1816174;78;21205;-85
2023/03/02 13:45:59;;;;;;;7.47;2.92;;;;;;;5.13;60.58;100553.34;1816561;79;21170;-84
2023/03/02 13:49:08;;;;;;;13.58;4.10;;;;;;;5.08;61.54;100542.02;1815696;79;21166;-84
2023/03/02 13:52:33;;;;;;;8.23;3.40;;;;;;;5.03;62.08;100538.85;1815886;79;21182;-84
2023/03/02 13:55:40;;;;;;;7.03;2.90;;;;;;;4.98;62.06;100531.63;1817512;79;21177;-84
2023/03/02 13:58:46;;;;;;;8.88;3.70;;;;;;;4.93;62.19;100532.53;1815790;79;21215;-84
2023/03/02 14:01:52;;;;;;;6.10;3.12;;;;;;;4.88;62.60;100535.14;1774709;79;21117;-85
2023/03/02 14:04:57;;;;;;;5.15;2.83;;;;;;;4.85;63.22;100528.66;1817753;79;21177;-84
2023/03/02 14:08:06;;;;;;;8.53;3.47;;;;;;;4.80;63.63;100532.27;1817253;79;21750;-85
2023/03/02 14:11:12;;;;;;;10.88;3.70;;;;;;;4.74;64.17;100534.12;1815978;79;21235;-84
2023/03/02 14:14:29;;;;;;;11.38;3.90;;;;;;;4.67;64.73;100535.67;1817833;79;21176;-84
2023/03/02 14:17:35;;;;;;;7.75;3.55;;;;;;;4.64;64.98;100529.66;1817825;79;21161;-84
2023/03/02 14:20:40;;;;;;;13.65;4.60;;;;;;;4.62;65.25;100527.09;1817688;79;21224;-84
2023/03/02 14:23:47;;;;;;;10.08;3.30;;;;;;;4.59;66.28;100521.42;1816978;79;21184;-85
2023/03/02 14:26:56;;;;;;;10.08;3.90;;;;;;;4.59;66.23;100521.92;1817539;79;21802;-85
2023/03/02 14:30:02;;;;;;;7.37;2.87;;;;;;;4.61;66.31;100515.86;1793043;79;21180;-86
2023/03/02 14:33:08;;;;;;;8.18;3.40;;;;;;;4.63;66.27;100512.54;1781837;80;21180;-85
2023/03/02 14:36:15;;;;;;;7.22;3.45;;;;;;;4.66;66.68;100520.41;1781764;80;21160;-84
2023/03/02 14:39:31;;;;;;;9.55;3.50;;;;;;;4.68;66.05;100518.41;1778524;80;21196;-85
2023/03/02 14:42:36;;;;;;;9.75;3.85;;;;;;;4.69;65.61;100518.77;1775230;81;22322;-84
2023/03/02 14:45:43;;;;;;;9.93;3.52;;;;;;;4.67;65.97;100521.27;1776528;81;21749;-84
2023/03/02 14:48:49;;;;;;;6.50;3.45;;;;;;;4.65;66.27;100515.11;1791527;78;21166;-84
2023/03/02 14:52:08;;;;;;;8.23;3.42;;;;;;;4.60;66.50;100516.86;1798567;78;21216;-84
2023/03/02 14:55:28;;;;;;;6.20;3.27;;;;;;;4.51;66.83;100520.36;1795830;80;22400;-84
2023/03/02 14:58:39;;;;;;;9.55;3.58;;;;;;;4.39;67.57;100522.29;1794051;78;21261;-83
2023/03/02 15:01:44;;;;;;;;;;;;;;;4.27;68.25;100521.47;1798476;80;21795;-85
2023/03/02 15:04:53;;;;;;;8.58;3.25;;;;;;;4.13;68.77;100527.20;1815368;79;20218;-85
2023/03/02 15:07:59;;;;;;;14.23;3.80;;;;;;;4.01;69.39;100525.55;1815761;79;21181;-84
2023/03/02 15:11:06;;;;;;;7.37;3.45;;;;;;;3.93;70.05;100525.33;1817206;79;21173;-83
2023/03/02 15:14:12;;;;;;;5.92;3.77;;;;;;;3.82;70.65;100524.87;1815726;79;21188;-84
2023/03/02 15:17:17;;;;;;;13.18;4.33;;;;;;;3.71;71.31;100520.83;1817245;79;21170;-84
2023/03/02 15:20:23;;;;;;;9.60;4.10;;;;;;;3.60;72.12;100520.38;1815710;79;21255;-84
2023/03/02 15:23:29;;;;;;;12.98;4.22;;;;;;;3.49;73.06;100523.97;1817231;79;21160;-84
2023/03/02 15:26:41;;;;;;;11.15;4.62;;;;;;;3.38;73.64;100525.32;1817207;79;21718;-84
2023/03/02 15:29:44;;;;;;;9.53;4.50;;;;;;;3.28;74.28;100531.97;1815644;79;21161;-84
2023/03/02 15:32:53;;;;;;;6.22;4.00;;;;;;;3.21;74.75;100528.06;1815731;79;21387;-84
2023/03/02 15:36:00;;;;;;;7.92;3.70;;;;;;;3.13;75.16;100533.71;1817119;79;21173;-84
2023/03/02 15:39:06;;;;;;;8.63;3.70;;;;;;;3.03;75.47;100533.59;1815652;79;21192;-84
2023/03/02 15:42:13;;;;;;;15.05;4.00;;;;;;;2.93;75.81;100534.81;1815186;78;21200;-84
2023/03/02 15:45:20;;;;;;;8.90;4.17;;;;;;;2.83;76.15;100538.37;1816998;79;21212;-85
2023/03/02 15:48:24;;;;;;;30.75;6.70;;;;;;;2.71;76.64;100539.70;1817780;79;21166;-85
2023/03/02 15:51:31;;;;;;;23.75;4.70;;;;;;;2.63;77.13;100545.32;1816418;79;21747;-85
2023/03/02 15:54:38;;;;;;;34.08;6.00;;;;;;;2.54;77.46;100545.54;1806032;78;21241;-84
2023/03/02 15:57:47;;;;;;;17.45;5.12;;;;;;;2.44;77.94;100550.80;1798730;80;21755;-84
2023/03/02 16:00:53;;;;;;;28.98;5.22;;;;;;;2.35;78.21;100541.20;1797512;80;21832;-84
2023/03/02 16:03:59;;;;;;;63.63;6.80;;;;;;;2.24;78.62;100546.08;1797248;79;21239;-84
2023/03/02 16:07:06;;;;;;;70.80;6.92;;;;;;;2.15;79.10;100550.33;1798598;80;21292;-84
2023/03/02 16:10:15;;;;;;;60.85;7.97;;;;;;;2.04;79.58;100548.95;1798035;80;21232;-85
2023/03/02 16:13:19;;;;;;;62.45;8.25;;;;;;;1.95;80.06;100552.34;1804452;78;21158;-85
2023/03/02 16:16:27;;;;;;;51.65;8.48;;;;;;;1.87;80.50;100549.34;1811149;78;21173;-84
2023/03/02 16:19:33;;;;;;;40.10;7.47;;;;;;;1.77;80.95;100550.03;1797318;80;21165;-84
2023/03/02 16:22:40;;;;;;;29.25;6.97;;;;;;;1.69;81.33;100552.92;1798544;80;21216;-85
2023/03/02 16:25:48;;;;;;;15.83;6.15;;;;;;;1.60;81.76;100550.91;1798490;80;21166;-84
2023/03/02 16:28:54;;;;;;;38.65;6.37;;;;;;;1.51;82.05;100564.60;1798675;79;21189;-84
2023/03/02 16:32:00;;;;;;;51.42;7.50;;;;;;;1.41;82.42;100558.13;1797163;80;21256;-84
2023/03/02 16:35:05;;;;;;;43.48;6.80;;;;;;;1.35;82.70;100563.98;1798535;80;21173;-84
2023/03/02 16:38:11;;;;;;;36.58;6.70;;;;;;;1.28;82.97;100563.58;1796926;80;21867;-83
2023/03/02 16:41:22;;;;;;;29.95;8.20;;;;;;;1.22;83.32;100566.23;1796594;80;21237;-85
2023/03/02 16:44:29;;;;;;;41.50;9.33;;;;;;;1.15;83.59;100575.70;1789945;80;21209;-84
2023/03/02 16:47:35;;;;;;;28.75;10.55;;;;;;;1.10;83.80;100567.09;1792847;80;21158;-84
2023/03/02 16:50:41;;;;;;;28.27;11.63;;;;;;;1.07;84.22;100575.87;1792345;80;21177;-84
2023/03/02 16:53:47;;;;;;;50.43;13.95;;;;;;;1.02;84.59;100571.67;1792878;80;21167;-84
2023/03/02 16:56:55;;;;;;;37.75;14.07;;;;;;;1.01;84.83;100570.44;1792703;80;21748;-84
2023/03/02 17:00:01;;;;;;;35.95;12.88;;;;;;;0.98;85.01;100577.38;1742179;82;21233;-84
2023/03/02 17:03:08;;;;;;;28.75;11.18;;;;;;;0.94;85.12;100581.26;1742509;82;21166;-83
2023/03/02 17:06:15;;;;;;;25.52;11.48;;;;;;;0.91;85.36;100578.80;1742420;82;21181;-84
2023/03/02 17:09:21;;;;;;;37.63;17.15;;;;;;;0.89;85.61;100576.69;1742327;82;21543;-85
2023/03/02 17:12:27;;;;;;;35.63;17.80;;;;;;;0.86;85.75;100578.27;1712868;84;21793;-85
2023/03/02 17:15:33;;;;;;;30.85;14.28;;;;;;;0.81;85.83;100575.90;1742354;82;21772;-84
2023/03/02 17:18:39;;;;;;;32.80;12.93;;;;;;;0.78;86.03;100576.59;1713040;84;21189;-83
2023/03/02 17:21:45;;;;;;;35.48;15.15;;;;;;;0.73;86.22;100575.56;1741334;82;21221;-85
2023/03/02 17:24:51;;;;;;;25.45;12.95;;;;;;;0.70;86.45;100576.63;1712412;84;21206;-83
2023/03/02 17:27:58;;;;;;;23.52;11.80;;;;;;;0.69;86.64;100580.78;1741590;82;21170;-84
2023/03/02 17:31:03;;;;;;;31.62;16.25;;;;;;;0.66;86.66;100576.94;1712239;84;21181;-83
2023/03/02 17:34:09;;;;;;;33.53;14.53;;;;;;;0.61;86.75;100582.68;1740583;81;21141;-85
2023/03/02 17:37:16;;;;;;;30.50;12.78;;;;;;;0.59;86.92;100583.25;1712643;84;22432;-84
2023/03/02 17:40:23;;;;;;;33.80;12.98;;;;;;;0.58;87.08;100580.67;1742276;82;21229;-85
2023/03/02 17:43:29;;;;;;;36.98;17.45;;;;;;;0.54;87.17;100584.05;1712640;83;21759;-84
2023/03/02 17:46:35;;;;;;;40.28;17.23;;;;;;;0.49;87.30;100581.68;1785798;79;21240;-84
2023/03/02 17:49:46;;;;;;;66.10;28.10;;;;;;;0.47;87.45;100580.05;1785642;80;21181;-84
2023/03/02 17:52:54;;;;;;;54.42;27.30;;;;;;;0.47;87.55;100582.73;1785632;80;21178;-83
2023/03/02 17:56:00;;;;;;;42.55;23.02;;;;;;;0.45;87.62;100576.13;1787223;80;21241;-85
2023/03/02 17:59:08;;;;;;;62.43;30.10;;;;;;;0.45;87.69;100580.64;1787161;80;21165;-84
2023/03/02 18:02:12;;;;;;;59.00;26.45;;;;;;;0.43;87.77;100583.94;1786558;80;21198;-84
2023/03/02 18:05:19;;;;;;;57.70;23.15;;;;;;;0.43;87.81;100584.80;1787283;80;21205;-84
2023/03/02 18:08:25;;;;;;;38.85;18.95;;;;;;;0.42;87.83;100587.58;1786088;80;21209;-84
2023/03/02 18:11:30;;;;;;;36.70;16.07;;;;;;;0.42;87.89;100584.88;1787080;80;21221;-83
2023/03/02 18:14:38;;;;;;;33.60;16.30;;;;;;;0.38;87.98;100580.70;1787352;80;21154;-84
2023/03/02 18:17:45;;;;;;;33.78;16.80;;;;;;;0.38;88.00;100584.74;1785756;80;21181;-84
2023/03/02 18:20:50;;;;;;;36.13;16.70;;;;;;;0.36;87.98;100588.86;1787044;80;21181;-83
2023/03/02 18:23:56;;;;;;;35.08;16.35;;;;;;;0.37;87.97;100585.68;1785683;80;21134;-85
2023/03/02 18:27:02;;;;;;;31.70;15.00;;;;;;;0.36;87.91;100583.97;1787136;80;21186;-83
2023/03/02 18:30:01;;;;;;;29.27;14.58;;;;;;;0.32;87.79;100577.92;1786108;80;21264;-84
2023/03/02 18:33:06;;;;;;;29.25;12.70;;;;;;;0.31;87.75;100583.42;1785890;80;21178;-84
2023/03/02 18:36:14;;;;;;;34.43;15.98;;;;;;;0.29;87.70;100577.30;1787052;80;21162;-85
2023/03/02 18:39:19;;;;;;;37.73;18.82;;;;;;;0.29;87.72;100582.67;1787212;80;21177;-84
2023/03/02 18:42:29;;;;;;;32.78;16.27;;;;;;;0.29;87.79;100590.75;1786911;80;21260;-85
2023/03/02 18:45:37;;;;;;;30.70;13.53;;;;;;;0.25;87.72;100580.18;1788751;80;21225;-84
2023/03/02 18:48:43;;;;;;;26.42;13.98;;;;;;;0.24;87.68;100579.81;1791191;80;21185;-84
2023/03/02 18:51:50;;;;;;;32.28;14.60;;;;;;;0.25;87.73;100592.29;1790937;79;21204;-83
2023/03/02 18:54:56;;;;;;;29.45;14.28;;;;;;;0.25;87.58;100585.56;1790862;79;21205;-84
2023/03/02 18:58:02;;;;;;;39.58;17.48;;;;;;;0.22;87.31;100592.48;1792484;80;21707;-84
2023/03/02 19:01:07;;;;;;;34.30;16.55;;;;;;;0.19;87.08;100595.41;1792341;80;21193;-84
2023/03/02 19:04:07;;;;;;;32.00;15.43;;;;;;;0.10;86.83;100589.78;1792555;80;21201;-83
2023/03/02 19:07:01;;;;;;;38.33;15.08;;;;;;;0.02;86.82;100593.45;1792590;80;21181;-84
2023/03/02 19:10:07;;;;;;;34.33;14.90;;;;;;;-0.09;87.05;100591.48;1792808;80;21177;-84
2023/03/02 19:13:14;;;;;;;33.92;16.75;;;;;;;-0.17;87.42;100596.02;1792006;80;21747;-84
2023/03/02 19:16:19;;;;;;;37.13;16.77;;;;;;;-0.19;87.81;100599.75;1792882;80;21288;-84
2023/03/02 19:19:25;;;;;;;105.40;46.25;;;;;;;-0.20;87.85;100596.69;1792864;80;21225;-85
2023/03/02 19:22:32;;;;;;;83.90;39.85;;;;;;;-0.30;87.84;100601.32;1792539;80;21214;-86
2023/03/02 19:25:37;;;;;;;78.62;37.55;;;;;;;-0.36;88.36;100599.53;1792943;80;21162;-85
2023/03/02 19:28:43;;;;;;;79.37;38.83;;;;;;;-0.39;88.82;100601.92;1791978;80;21815;-85
2023/03/02 19:31:50;;;;;;;67.53;34.75;;;;;;;-0.42;89.06;100604.83;1791648;80;21130;-84
2023/03/02 19:34:58;;;;;;;70.15;33.25;;;;;;;-0.46;89.33;100603.77;1792993;80;21220;-84
2023/03/02 19:38:02;;;;;;;66.20;30.08;;;;;;;-0.47;89.61;100606.95;1792962;80;21182;-83
2023/03/02 19:41:09;;;;;;;60.58;29.15;;;;;;;-0.47;89.78;100608.74;1792889;80;21153;-84
2023/03/02 19:44:15;;;;;;;53.25;28.90;;;;;;;-0.49;90.02;100602.13;1791570;80;21815;-84
2023/03/02 19:47:20;;;;;;;60.88;33.75;;;;;;;-0.47;90.27;100606.05;1786527;80;21273;-84
2023/03/02 19:50:26;;;;;;;72.87;36.05;;;;;;;-0.44;90.56;100602.70;1785647;80;21181;-85
2023/03/02 19:53:32;;;;;;;74.05;37.35;;;;;;;-0.43;90.56;100600.38;1785601;80;21194;-85
2023/03/02 19:56:41;;;;;;;56.35;31.05;;;;;;;-0.46;90.61;100594.38;1787574;80;21107;-84
2023/03/02 19:59:48;;;;;;;63.75;33.98;;;;;;;-0.45;90.73;100590.72;1787422;80;21186;-84
2023/03/02 20:02:54;;;;;;;50.70;29.32;;;;;;;-0.47;90.60;100588.14;1787155;80;21241;-84
2023/03/02 20:06:02;;;;;;;49.53;28.02;;;;;;;-0.46;90.63;100580.94;1787570;80;21197;-85
2023/03/02 20:09:13;;;;;;;56.28;28.30;;;;;;;-0.45;90.64;100572.77;1787650;80;21220;-84
2023/03/02 20:12:20;;;;;;;50.10;25.27;;;;;;;-0.44;90.60;100578.99;1786323;80;21700;-85
2023/03/02 20:15:26;;;;;;;53.48;26.20;;;;;;;-0.45;90.30;100565.18;1787848;80;21158;-84
2023/03/02 20:18:31;;;;;;;58.02;28.95;;;;;;;-0.49;90.20;100570.38;1787534;80;21178;-84
2023/03/02 20:21:37;;;;;;;51.18;24.67;;;;;;;-0.55;90.04;100562.23;1787895;80;21220;-84
2023/03/02 20:24:44;;;;;;;56.70;26.48;;;;;;;-0.58;90.19;100565.11;1785864;80;21218;-84
2023/03/02 20:27:51;;;;;;;53.00;23.85;;;;;;;-0.61;90.11;100559.47;1786724;80;21260;-85